createdAt,value
2019-06-07T00:00:38.868Z,18.03
2019-06-07T00:02:53.320Z,19.00
2019-06-07T00:05:22.802Z,19.30
2019-06-07T00:07:52.290Z,19.97
2019-06-07T00:10:36.215Z,18.43
2019-06-07T00:12:52.993Z,19.73
2019-06-07T00:15:28.773Z,18.40
2019-06-07T00:17:53.686Z,17.67
2019-06-07T00:20:23.804Z,19.10
2019-06-07T00:22:53.596Z,19.30
2019-06-07T00:25:24.550Z,18.43
2019-06-07T00:27:54.292Z,18.70
2019-06-07T00:30:50.818Z,19.50
2019-06-07T00:32:56.155Z,19.27
2019-06-07T00:35:25.569Z,17.90
2019-06-07T00:37:54.974Z,17.43
2019-06-07T00:40:31.402Z,18.37
2019-06-07T00:42:55.653Z,18.93
2019-06-07T00:45:25.065Z,19.30
2019-06-07T00:47:54.536Z,17.87
2019-06-07T00:50:24.520Z,17.83
2019-06-07T00:55:27.727Z,16.63
2019-06-07T00:57:56.843Z,18.60
2019-06-07T01:00:26.286Z,18.17
2019-06-07T01:02:55.829Z,17.77
2019-06-07T01:05:31.157Z,16.70
2019-06-07T01:07:56.723Z,17.67
2019-06-07T01:10:51.604Z,18.00
2019-06-07T01:12:57.715Z,19.27
2019-06-07T01:15:29.037Z,17.37
2019-06-07T01:20:29.890Z,18.90
2019-06-07T01:22:59.571Z,17.03
2019-06-07T01:25:29.277Z,17.20
2019-06-07T01:27:58.747Z,17.07
2019-06-07T01:30:29.276Z,17.33
2019-06-07T01:32:59.678Z,16.80
2019-06-07T01:35:29.808Z,18.67
2019-06-07T01:37:59.841Z,17.93
2019-06-07T01:40:32.572Z,16.63
2019-06-07T01:43:00.858Z,16.77
2019-06-07T01:45:31.188Z,16.30
2019-06-07T01:48:00.816Z,16.07
2019-06-07T01:50:31.705Z,15.53
2019-06-07T01:53:01.307Z,16.53
2019-06-07T01:55:32.793Z,15.13
2019-06-07T01:58:01.858Z,14.67
2019-06-07T02:00:32.681Z,14.17
2019-06-07T02:03:02.460Z,14.00
2019-06-07T02:05:32.429Z,14.40
2019-06-07T02:08:02.140Z,15.47
2019-06-07T02:10:33.613Z,14.50
2019-06-07T02:13:02.767Z,14.30
2019-06-07T02:15:36.568Z,15.20
2019-06-07T02:18:03.412Z,15.57
2019-06-07T02:20:34.532Z,14.67
2019-06-07T02:23:04.045Z,15.03
2019-06-07T02:25:42.837Z,15.60
2019-06-07T02:28:26.508Z,13.90
2019-06-07T02:30:44.862Z,14.70
2019-06-07T02:33:07.022Z,13.93
2019-06-07T02:35:40.172Z,14.33
2019-06-07T02:38:07.764Z,14.60
2019-06-07T02:40:37.708Z,14.67
2019-06-07T02:43:07.481Z,13.97
2019-06-07T02:45:43.117Z,13.83
2019-06-07T02:48:08.194Z,13.27
2019-06-07T02:50:38.773Z,14.80
2019-06-07T02:53:08.376Z,13.90
2019-06-07T02:56:33.286Z,13.90
2019-06-07T02:58:09.157Z,13.10
2019-06-07T03:01:08.897Z,13.93
2019-06-07T03:03:22.286Z,13.70
2019-06-07T03:05:52.131Z,13.53
2019-06-07T03:08:21.615Z,13.00
2019-06-07T03:10:51.446Z,13.13
2019-06-07T03:13:22.022Z,12.93
2019-06-07T03:15:56.050Z,14.07
2019-06-07T03:18:43.259Z,14.10
2019-06-07T03:21:15.582Z,14.33
2019-06-07T03:23:45.647Z,13.33
2019-06-07T03:26:15.118Z,12.83
2019-06-07T03:28:44.706Z,12.33
2019-06-07T03:31:14.185Z,13.00
2019-06-07T03:33:45.513Z,13.63
2019-06-07T03:36:23.818Z,13.20
2019-06-07T03:38:46.008Z,12.33
2019-06-07T03:41:15.479Z,13.00
2019-06-07T03:43:44.985Z,12.77
2019-06-07T03:46:14.459Z,14.07
2019-06-07T03:48:43.930Z,13.33
2019-06-07T03:51:24.898Z,13.90
2019-06-07T03:53:44.547Z,14.37
2019-06-07T03:56:14.628Z,12.53
2019-06-07T03:58:49.694Z,13.07
2019-06-07T04:01:15.986Z,15.00
2019-06-07T04:03:51.311Z,12.60
2019-06-07T04:06:16.624Z,11.60
2019-06-07T04:08:46.090Z,12.53
2019-06-07T04:11:15.494Z,11.50
2019-06-07T04:13:44.998Z,12.77
2019-06-07T04:16:14.470Z,12.00
2019-06-07T04:18:43.948Z,12.40
2019-06-07T04:21:13.439Z,10.97
2019-06-07T04:23:45.633Z,11.40
2019-06-07T04:26:14.129Z,12.37
2019-06-07T04:31:14.773Z,12.10
2019-06-07T04:33:44.271Z,11.53
2019-06-07T04:36:46.962Z,12.23
2019-06-07T04:39:06.137Z,11.90
2019-06-07T04:41:37.256Z,10.60
2019-06-07T04:44:06.714Z,10.13
2019-06-07T04:46:39.859Z,9.80
2019-06-07T04:49:07.343Z,10.93
2019-06-07T04:51:40.590Z,10.13
2019-06-07T04:54:08.150Z,11.10
2019-06-07T04:56:41.493Z,10.70
2019-06-07T05:00:04.300Z,11.53
2019-06-07T05:01:59.646Z,10.03
2019-06-07T05:04:31.383Z,9.40
2019-06-07T05:07:00.354Z,10.53
2019-06-07T05:09:30.194Z,10.07
2019-06-07T05:11:59.850Z,12.63
2019-06-07T05:14:32.542Z,14.87
2019-06-07T05:17:00.502Z,15.30
2019-06-07T05:19:30.572Z,15.40
2019-06-07T05:22:04.762Z,14.53
2019-06-07T05:24:35.587Z,16.20
2019-06-07T05:27:03.056Z,16.50
2019-06-07T05:29:34.674Z,16.43
2019-06-07T05:32:03.665Z,16.73
2019-06-07T05:34:34.579Z,16.20
2019-06-07T05:37:11.479Z,15.27
2019-06-07T05:39:38.395Z,16.27
2019-06-07T05:42:06.731Z,13.80
2019-06-07T05:44:36.630Z,15.83
2019-06-07T05:47:07.322Z,16.40
2019-06-07T05:49:40.644Z,17.20
2019-06-07T05:52:08.220Z,16.60
2019-06-07T05:54:39.582Z,20.83
2019-06-07T05:57:08.866Z,17.07
2019-06-07T05:59:41.189Z,15.80
2019-06-07T06:02:22.210Z,16.23
2019-06-07T06:04:45.843Z,16.43
2019-06-07T06:07:11.970Z,18.00
2019-06-07T06:09:43.199Z,17.23
2019-06-07T06:12:12.688Z,21.17
2019-06-07T06:14:44.483Z,15.10
2019-06-07T06:17:13.754Z,13.93
2019-06-07T06:19:47.365Z,14.00
2019-06-07T06:22:14.590Z,13.07
2019-06-07T06:25:28.394Z,13.50
2019-06-07T06:27:55.573Z,13.03
2019-06-07T06:29:50.110Z,11.07
2019-06-07T06:34:53.253Z,10.33
2019-06-07T06:37:20.464Z,9.57
2019-06-07T06:39:50.269Z,10.23
2019-06-07T06:42:19.901Z,10.13
2019-06-07T06:44:53.830Z,10.33
2019-06-07T06:47:20.628Z,10.10
2019-06-07T06:49:54.165Z,13.27
2019-06-07T06:52:21.349Z,10.60
2019-06-07T06:54:59.701Z,11.00
2019-06-07T06:57:21.945Z,10.97
2019-06-07T06:59:52.829Z,8.00
2019-06-07T07:02:22.492Z,7.53
2019-06-07T07:04:53.822Z,7.77
2019-06-07T07:07:23.491Z,7.40
2019-06-07T07:10:12.304Z,8.33
2019-06-07T07:12:42.978Z,7.43
2019-06-07T07:15:19.160Z,8.27
2019-06-07T07:18:00.669Z,8.03
2019-06-07T07:20:19.781Z,8.63
2019-06-07T07:22:53.593Z,8.23
2019-06-07T07:25:20.559Z,8.30
2019-06-07T07:27:53.419Z,7.33
2019-06-07T07:30:50.830Z,8.10
2019-06-07T07:33:19.396Z,7.50
2019-06-07T07:36:10.833Z,8.00
2019-06-07T07:38:19.940Z,8.87
2019-06-07T07:41:07.660Z,7.70
2019-06-07T07:43:20.557Z,7.70
2019-06-07T07:45:54.955Z,7.50
2019-06-07T07:48:21.487Z,7.60
2019-06-07T07:50:54.408Z,7.63
2019-06-07T07:53:22.238Z,7.63
2019-06-07T07:55:54.920Z,7.43
2019-06-07T07:58:23.119Z,7.43
2019-06-07T08:01:00.819Z,7.03
2019-06-07T08:03:23.758Z,7.17
2019-06-07T08:05:57.036Z,6.90
2019-06-07T08:08:24.407Z,7.20
2019-06-07T08:10:56.479Z,7.20
2019-06-07T08:13:27.661Z,7.80
2019-06-07T08:15:59.658Z,8.10
2019-06-07T08:18:27.891Z,7.60
2019-06-07T08:21:17.227Z,7.50
2019-06-07T08:23:28.773Z,7.00
2019-06-07T08:26:01.141Z,8.20
2019-06-07T08:28:29.598Z,8.30
2019-06-07T08:31:06.417Z,7.50
2019-06-07T08:33:30.379Z,8.23
2019-06-07T08:36:19.522Z,8.00
2019-06-07T08:38:47.053Z,7.83
2019-06-07T08:41:11.012Z,7.90
2019-06-07T08:43:33.449Z,7.97
2019-06-07T08:46:07.438Z,7.80
2019-06-07T08:48:34.153Z,7.87
2019-06-07T08:51:08.137Z,8.13
2019-06-07T08:53:34.828Z,7.90
2019-06-07T08:56:09.896Z,7.27
2019-06-07T08:58:35.374Z,7.47
2019-06-07T09:01:08.374Z,7.50
2019-06-07T09:03:35.981Z,7.00
2019-06-07T09:06:16.472Z,7.37
2019-06-07T09:08:36.772Z,7.20
2019-06-07T09:11:10.945Z,7.13
2019-06-07T09:13:37.424Z,7.40
2019-06-07T09:16:09.022Z,8.13
2019-06-07T09:18:43.548Z,7.23
2019-06-07T09:21:09.885Z,8.17
2019-06-07T09:23:39.708Z,7.70
2019-06-07T09:26:17.988Z,7.40
2019-06-07T09:28:40.459Z,7.13
2019-06-07T09:31:12.473Z,7.60
2019-06-07T09:33:41.047Z,7.50
2019-06-07T09:36:13.265Z,8.03
2019-06-07T09:38:41.969Z,7.70
2019-06-07T09:41:11.368Z,7.40
2019-06-07T09:44:20.386Z,8.00
2019-06-07T09:46:15.723Z,7.50
2019-06-07T09:51:20.059Z,8.30
2019-06-07T09:53:45.612Z,7.93
2019-06-07T09:56:15.107Z,7.00
2019-06-07T09:58:53.539Z,7.13
2019-06-07T10:01:15.704Z,7.97
2019-06-07T10:03:45.190Z,7.93
2019-06-07T10:06:14.655Z,7.43
2019-06-07T10:11:16.835Z,7.70
2019-06-07T10:13:46.280Z,7.87
2019-06-07T10:16:15.671Z,7.67
2019-06-07T10:18:45.162Z,6.63
2019-06-07T10:21:15.507Z,7.30
2019-06-07T10:23:45.360Z,7.10
2019-06-07T10:26:14.860Z,6.83
2019-06-07T10:28:44.386Z,7.17
2019-06-07T10:31:13.904Z,7.20
2019-06-07T10:33:43.423Z,7.53
2019-06-07T10:36:12.890Z,7.07
2019-06-07T10:38:42.367Z,7.50
2019-06-07T10:41:11.855Z,6.43
2019-06-07T10:43:41.274Z,7.93
2019-06-07T10:46:12.073Z,7.37
2019-06-07T10:48:41.859Z,6.80
2019-06-07T10:51:14.379Z,6.60
2019-06-07T10:53:42.506Z,6.00
2019-06-07T10:56:13.325Z,6.90
2019-06-07T10:58:42.970Z,7.47
2019-06-07T11:01:13.949Z,6.57
2019-06-07T11:03:43.903Z,6.90
2019-06-07T11:06:14.312Z,6.90
2019-06-07T11:08:43.980Z,6.70
2019-06-07T11:11:14.380Z,6.40
2019-06-07T11:13:44.108Z,6.20
2019-06-07T11:16:15.517Z,6.33
2019-06-07T11:18:44.793Z,6.57
2019-06-07T11:21:14.419Z,7.23
2019-06-07T11:23:44.027Z,6.80
2019-06-07T11:26:14.417Z,7.43
2019-06-07T11:28:44.181Z,7.33
2019-06-07T11:31:14.930Z,7.50
2019-06-07T11:33:44.717Z,7.13
2019-06-07T11:36:15.250Z,7.70
2019-06-07T11:38:44.930Z,7.23
2019-06-07T11:41:15.675Z,8.43
2019-06-07T11:43:45.330Z,8.37
2019-06-07T11:46:15.165Z,8.30
2019-06-07T11:48:44.696Z,8.17
2019-06-07T11:51:14.884Z,8.20
2019-06-07T11:53:44.622Z,7.93
2019-06-07T11:56:14.174Z,7.33
2019-06-07T11:58:43.492Z,7.43
2019-06-07T12:01:14.911Z,7.43
2019-06-07T12:03:44.189Z,7.67
2019-06-07T12:06:14.573Z,7.67
2019-06-07T12:08:44.450Z,8.10
2019-06-07T12:11:14.405Z,7.33
2019-06-07T12:13:44.001Z,6.93
2019-06-07T12:16:14.068Z,7.20
2019-06-07T12:18:44.835Z,7.57
2019-06-07T12:21:15.646Z,6.70
2019-06-07T12:23:45.391Z,7.17
2019-06-07T12:26:14.887Z,6.90
2019-06-07T12:28:44.469Z,6.20
2019-06-07T12:31:15.011Z,12.23
2019-06-07T12:33:44.613Z,8.17
2019-06-07T12:36:14.043Z,6.70
2019-06-07T12:38:43.518Z,6.20
2019-06-07T12:41:14.036Z,7.20
2019-06-07T12:43:43.781Z,7.00
2019-06-07T12:46:15.432Z,6.57
2019-06-07T12:48:44.440Z,7.20
2019-06-07T12:51:15.090Z,7.03
2019-06-07T12:53:44.646Z,7.00
2019-06-07T12:56:15.330Z,6.33
2019-06-07T12:58:45.267Z,7.20
2019-06-07T13:01:15.897Z,6.60
2019-06-07T13:03:45.514Z,6.37
2019-06-07T13:06:15.406Z,6.60
2019-06-07T13:08:44.985Z,6.50
2019-06-07T13:11:21.230Z,6.07
2019-06-07T13:13:45.566Z,8.10
2019-06-07T13:16:16.341Z,6.90
2019-06-07T13:18:46.536Z,6.57
2019-06-07T13:21:16.273Z,6.73
2019-06-07T13:23:45.801Z,7.20
2019-06-07T13:26:16.733Z,6.63
2019-06-07T13:28:46.715Z,6.63
2019-06-07T13:31:16.500Z,6.40
2019-06-07T13:33:46.149Z,6.70
2019-06-07T13:36:16.035Z,8.70
2019-06-07T13:38:45.706Z,8.83
2019-06-07T13:41:30.200Z,7.10
2019-06-07T13:43:46.281Z,7.27
2019-06-07T13:46:16.877Z,7.23
2019-06-07T13:48:46.523Z,7.10
2019-06-07T13:51:18.392Z,6.70
2019-06-07T13:53:47.073Z,7.23
2019-06-07T13:56:17.765Z,6.83
2019-06-07T13:58:47.352Z,6.77
2019-06-07T14:01:16.751Z,7.20
2019-06-07T14:03:46.126Z,7.20
2019-06-07T14:06:15.457Z,7.27
2019-06-07T14:08:44.928Z,6.87
2019-06-07T14:11:14.395Z,7.23
2019-06-07T14:13:44.732Z,7.70
2019-06-07T14:16:14.228Z,6.93
2019-06-07T14:18:43.789Z,7.03
2019-06-07T14:21:13.182Z,7.20
2019-06-07T14:23:49.134Z,7.00
2019-06-07T14:26:13.868Z,6.70
2019-06-07T14:28:43.339Z,7.20
2019-06-07T14:31:12.842Z,7.10
2019-06-07T14:33:42.215Z,7.10
2019-06-07T14:36:11.708Z,6.73
2019-06-07T14:38:41.178Z,7.30
2019-06-07T14:41:10.778Z,6.33
2019-06-07T14:43:40.278Z,6.80
2019-06-07T14:46:09.742Z,7.60
2019-06-07T14:48:39.244Z,7.07
2019-06-07T14:51:08.709Z,6.47
2019-06-07T14:53:38.131Z,7.07
2019-06-07T14:56:07.532Z,6.30
2019-06-07T14:58:42.774Z,6.47
2019-06-07T15:01:08.159Z,5.50
2019-06-07T15:03:39.062Z,7.03
2019-06-07T15:06:08.722Z,7.50
2019-06-07T15:08:39.174Z,7.60
2019-06-07T15:11:08.843Z,6.50
2019-06-07T15:13:39.760Z,6.57
2019-06-07T15:16:09.464Z,6.90
2019-06-07T15:18:38.947Z,5.47
2019-06-07T15:21:08.407Z,6.30
2019-06-07T15:23:39.263Z,5.67
2019-06-07T15:26:08.963Z,6.07
2019-06-07T15:28:38.554Z,6.37
2019-06-07T15:31:08.144Z,6.43
2019-06-07T15:33:38.374Z,6.70
2019-06-07T15:36:08.019Z,6.00
2019-06-07T15:38:39.101Z,6.00
2019-06-07T15:41:08.555Z,5.73
2019-06-07T15:43:39.062Z,6.40
2019-06-07T15:46:08.893Z,5.67
2019-06-07T15:48:38.461Z,5.30
2019-06-07T15:51:07.783Z,5.80
2019-06-07T15:53:42.309Z,5.87
2019-06-07T15:56:08.557Z,6.40
2019-06-07T15:58:39.428Z,5.90
2019-06-07T16:01:09.131Z,5.70
2019-06-07T16:03:39.880Z,5.40
2019-06-07T16:06:09.490Z,5.87
2019-06-07T16:08:38.844Z,5.60
2019-06-07T16:11:08.314Z,5.87
2019-06-07T16:13:38.794Z,5.80
2019-06-07T16:16:08.559Z,5.60
2019-06-07T16:18:39.723Z,6.20
2019-06-07T16:21:09.326Z,6.20
2019-06-07T16:23:39.859Z,5.30
2019-06-07T16:26:09.502Z,6.00
2019-06-07T16:28:38.994Z,6.30
2019-06-07T16:31:08.249Z,6.43
2019-06-07T16:33:38.825Z,5.40
2019-06-07T16:36:08.429Z,5.47
2019-06-07T16:38:38.071Z,6.20
2019-06-07T16:41:07.592Z,6.80
2019-06-07T16:43:38.447Z,6.10
2019-06-07T16:46:07.990Z,6.37
2019-06-07T16:48:38.744Z,6.27
2019-06-07T16:51:08.230Z,5.93
2019-06-07T16:53:38.211Z,6.00
2019-06-07T16:56:07.815Z,6.07
2019-06-07T16:58:37.858Z,5.80
2019-06-07T17:01:07.459Z,5.67
2019-06-07T17:03:37.289Z,6.30
2019-06-07T17:06:06.867Z,5.77
2019-06-07T17:08:37.867Z,5.87
2019-06-07T17:11:07.430Z,6.10
2019-06-07T17:13:38.081Z,6.13
2019-06-07T17:16:07.714Z,5.80
2019-06-07T17:18:37.336Z,5.90
2019-06-07T17:21:07.133Z,5.97
2019-06-07T17:23:36.627Z,5.63
2019-06-07T17:26:06.081Z,6.00
2019-06-07T17:28:35.554Z,6.40
2019-06-07T17:31:04.971Z,5.60
2019-06-07T17:33:34.320Z,6.40
2019-06-07T17:36:03.724Z,6.03
2019-06-07T17:38:33.121Z,5.67
2019-06-07T17:41:02.556Z,5.50
2019-06-07T17:43:32.028Z,7.07
2019-06-07T17:46:01.446Z,5.37
2019-06-07T17:48:30.930Z,5.47
2019-06-07T17:51:00.624Z,5.10
2019-06-07T17:53:30.709Z,5.93
2019-06-07T17:56:00.210Z,5.73
2019-06-07T17:58:29.731Z,5.77
2019-06-07T18:00:59.548Z,6.40
2019-06-07T18:03:28.887Z,7.90
2019-06-07T18:05:58.517Z,6.70
2019-06-07T18:08:27.869Z,7.43
2019-06-07T18:10:57.297Z,10.03
2019-06-07T18:13:26.782Z,6.93
2019-06-07T18:15:59.486Z,7.40
2019-06-07T18:18:27.381Z,8.53
2019-06-07T18:20:56.887Z,6.63
2019-06-07T18:23:26.345Z,7.00
2019-06-07T18:25:55.843Z,6.47
2019-06-07T18:28:25.859Z,5.80
2019-06-07T18:30:55.349Z,6.20
2019-06-07T18:33:24.862Z,6.97
2019-06-07T18:35:55.312Z,7.47
2019-06-07T18:38:25.101Z,6.63
2019-06-07T18:40:55.367Z,5.97
2019-06-07T18:43:25.009Z,6.03
2019-06-07T18:45:55.943Z,9.33
2019-06-07T18:48:25.578Z,8.17
2019-06-07T18:50:55.050Z,6.73
2019-06-07T18:53:24.574Z,7.07
2019-06-07T18:55:54.129Z,6.83
2019-06-07T18:58:23.565Z,6.40
2019-06-07T19:00:53.795Z,6.93
2019-06-07T19:03:23.464Z,6.87
2019-06-07T19:05:54.175Z,6.23
2019-06-07T19:08:23.859Z,6.90
2019-06-07T19:10:53.238Z,5.97
2019-06-07T19:13:22.682Z,8.73
2019-06-07T19:15:53.319Z,7.40
2019-06-07T19:18:22.853Z,7.87
2019-06-07T19:20:52.523Z,7.00
2019-06-07T19:23:22.120Z,7.30
2019-06-07T19:25:52.204Z,7.17
2019-06-07T19:28:21.767Z,7.40
2019-06-07T19:30:51.234Z,7.50
2019-06-07T19:33:20.743Z,7.63
2019-06-07T19:35:51.348Z,6.63
2019-06-07T19:38:21.166Z,7.33
2019-06-07T19:40:51.677Z,7.00
2019-06-07T19:43:21.329Z,7.83
2019-06-07T19:45:52.078Z,8.00
2019-06-07T19:48:22.229Z,7.57
2019-06-07T19:50:52.877Z,8.00
2019-06-07T19:53:23.146Z,7.73
2019-06-07T19:55:53.065Z,8.43
2019-06-07T19:58:23.274Z,7.70
2019-06-07T20:00:53.382Z,8.70
2019-06-07T20:03:23.378Z,9.10
2019-06-07T20:05:54.047Z,9.70
2019-06-07T20:08:23.837Z,8.23
2019-06-07T20:10:54.438Z,7.60
2019-06-07T20:13:24.400Z,7.83
2019-06-07T20:15:54.727Z,8.27
2019-06-07T20:18:27.764Z,8.40
2019-06-07T20:20:56.409Z,12.87
2019-06-07T20:23:26.296Z,9.17
2019-06-07T20:25:56.156Z,12.93
2019-06-07T20:28:26.124Z,9.07
2019-06-07T20:30:55.577Z,8.23
2019-06-07T20:36:30.493Z,8.93
2019-06-07T20:39:00.232Z,12.00
2019-06-07T20:41:29.785Z,10.70
2019-06-07T20:43:59.730Z,8.53
2019-06-07T20:46:29.274Z,8.53
2019-06-07T20:49:00.335Z,8.40
2019-06-07T20:51:29.847Z,8.90
2019-06-07T20:54:00.381Z,8.43
2019-06-07T20:56:30.093Z,8.50
2019-06-07T20:59:00.477Z,8.87
2019-06-07T21:01:30.016Z,9.43
2019-06-07T21:03:59.409Z,8.17
2019-06-07T21:06:28.840Z,8.27
2019-06-07T21:08:59.336Z,8.40
2019-06-07T21:11:28.915Z,8.77
2019-06-07T21:13:59.906Z,8.13
2019-06-07T21:16:29.427Z,7.43
2019-06-07T21:19:00.030Z,6.97
2019-06-07T21:21:29.707Z,8.40
2019-06-07T21:24:00.419Z,8.40
2019-06-07T21:26:29.970Z,7.93
2019-06-07T21:29:01.045Z,7.80
2019-06-07T21:31:30.594Z,7.70
2019-06-07T21:34:01.270Z,8.17
2019-06-07T21:36:30.935Z,9.00
2019-06-07T21:39:00.395Z,8.40
2019-06-07T21:41:29.898Z,9.13
2019-06-07T21:43:59.373Z,8.40
2019-06-07T21:46:28.728Z,8.17
2019-06-07T21:48:58.187Z,8.73
2019-06-07T21:51:27.677Z,8.47
2019-06-07T21:53:57.008Z,8.80
2019-06-07T21:56:26.476Z,8.70
2019-06-07T21:58:55.966Z,8.50
2019-06-07T22:01:25.976Z,9.40
2019-06-07T22:03:55.456Z,9.27
2019-06-07T22:06:25.067Z,8.43
2019-06-07T22:08:54.531Z,8.20
2019-06-07T22:11:24.031Z,9.20
2019-06-07T22:13:53.425Z,8.43
2019-06-07T22:16:28.913Z,9.07
2019-06-07T22:18:54.167Z,8.80
2019-06-07T22:21:23.895Z,9.57
2019-06-07T22:23:53.372Z,9.30
2019-06-07T22:26:22.808Z,9.30
2019-06-07T22:28:52.262Z,12.00
2019-06-07T22:31:21.666Z,9.47
2019-06-07T22:33:51.168Z,8.90
2019-06-07T22:36:20.633Z,9.23
2019-06-07T22:38:50.137Z,9.60
2019-06-07T22:41:19.546Z,9.50
2019-06-07T22:43:49.017Z,10.00
2019-06-07T22:46:19.287Z,9.60
2019-06-07T22:48:48.939Z,9.07
2019-06-07T22:51:18.491Z,9.00
2019-06-07T22:53:48.030Z,8.13
2019-06-07T22:56:19.087Z,9.33
2019-06-07T22:58:48.596Z,9.83
2019-06-07T23:01:20.084Z,9.37
2019-06-07T23:03:49.289Z,8.77
2019-06-07T23:06:19.040Z,8.90
2019-06-07T23:08:48.640Z,8.50
2019-06-07T23:11:19.424Z,8.73
2019-06-07T23:13:49.139Z,9.63
2019-06-07T23:16:19.823Z,7.20
2019-06-07T23:18:49.478Z,8.57
2019-06-07T23:21:20.131Z,8.83
2019-06-07T23:23:49.960Z,9.40
2019-06-07T23:26:20.594Z,9.37
2019-06-07T23:28:50.322Z,8.83
2019-06-07T23:31:20.811Z,10.07
2019-06-07T23:33:50.618Z,9.47
2019-06-07T23:36:21.339Z,10.20
2019-06-07T23:38:50.927Z,10.77
2019-06-07T23:41:22.183Z,9.80
2019-06-07T23:43:51.890Z,10.83
2019-06-07T23:46:21.717Z,10.53
2019-06-07T23:48:51.291Z,10.70
2019-06-07T23:51:21.994Z,9.43
2019-06-07T23:53:51.585Z,10.00
2019-06-07T23:56:22.288Z,10.43
2019-06-07T23:58:51.965Z,10.10
